createdAt,value
2022-10-22T00:02:21.892Z,64.29
2022-10-22T00:04:54.023Z,64.33
2022-10-22T00:07:25.747Z,64.36
2022-10-22T00:09:57.145Z,64.34
2022-10-22T00:12:34.235Z,64.33
2022-10-22T00:15:07.158Z,64.28
2022-10-22T00:17:39.540Z,64.21
2022-10-22T00:20:13.518Z,64.18
2022-10-22T00:22:45.061Z,64.20
2022-10-22T00:25:20.317Z,64.09
2022-10-22T00:27:51.789Z,64.13
2022-10-22T00:30:23.402Z,64.01
2022-10-22T00:32:54.860Z,64.07
2022-10-22T00:35:26.849Z,64.13
2022-10-22T00:37:58.296Z,64.14
2022-10-22T00:40:29.790Z,64.12
2022-10-22T00:43:01.265Z,64.04
2022-10-22T00:45:33.237Z,64.17
2022-10-22T00:48:10.395Z,64.30
2022-10-22T00:50:47.442Z,64.16
2022-10-22T00:53:21.382Z,64.11
2022-10-22T00:55:53.186Z,64.16
2022-10-22T00:58:28.667Z,64.22
2022-10-22T01:01:00.949Z,64.23
2022-10-22T01:03:34.157Z,64.23
2022-10-22T01:06:07.152Z,64.22
2022-10-22T01:08:52.011Z,64.30
2022-10-22T01:11:30.417Z,64.33
2022-10-22T01:14:14.414Z,64.31
2022-10-22T01:16:49.376Z,64.36
2022-10-22T01:19:44.362Z,64.39
2022-10-22T01:22:21.905Z,64.44
2022-10-22T01:25:06.472Z,64.45
2022-10-22T01:27:54.960Z,64.46
2022-10-22T01:30:27.958Z,64.46
2022-10-22T01:33:04.731Z,64.49
2022-10-22T01:35:42.964Z,64.44
2022-10-22T01:38:20.214Z,64.47
2022-10-22T01:40:54.627Z,64.43
2022-10-22T01:43:26.459Z,64.45
2022-10-22T01:46:03.217Z,64.38
2022-10-22T01:48:45.530Z,64.43
2022-10-22T01:51:39.958Z,64.32
2022-10-22T01:54:23.964Z,64.41
2022-10-22T01:56:59.468Z,64.38
2022-10-22T01:59:44.753Z,64.47
2022-10-22T02:02:30.738Z,64.61
2022-10-22T02:05:06.633Z,64.63
2022-10-22T02:07:43.847Z,64.70
2022-10-22T02:10:18.859Z,64.73
2022-10-22T02:12:54.823Z,64.75
2022-10-22T02:15:28.677Z,64.75
2022-10-22T02:18:01.441Z,64.89
2022-10-22T02:20:36.458Z,64.88
2022-10-22T02:23:09.954Z,64.96
2022-10-22T02:25:45.884Z,64.92
2022-10-22T02:28:25.771Z,64.94
2022-10-22T02:31:10.420Z,64.98
2022-10-22T02:33:46.804Z,65.05
2022-10-22T02:36:20.184Z,65.04
2022-10-22T02:38:53.683Z,65.01
2022-10-22T02:41:25.465Z,65.05
2022-10-22T02:43:58.107Z,65.09
2022-10-22T02:46:29.687Z,65.12
2022-10-22T02:49:01.185Z,65.16
2022-10-22T02:51:32.610Z,65.19
2022-10-22T02:54:04.240Z,65.22
2022-10-22T02:56:35.702Z,65.28
2022-10-22T02:59:07.251Z,65.30
2022-10-22T03:01:38.730Z,65.36
2022-10-22T03:04:10.317Z,65.39
2022-10-22T03:06:43.952Z,65.56
2022-10-22T03:09:18.153Z,65.55
2022-10-22T03:11:51.468Z,65.63
2022-10-22T03:14:23.111Z,65.70
2022-10-22T03:16:55.274Z,65.62
2022-10-22T03:19:28.863Z,65.62
2022-10-22T03:22:06.668Z,65.66
2022-10-22T03:24:42.236Z,65.70
2022-10-22T03:27:16.119Z,65.73
2022-10-22T03:29:47.981Z,65.73
2022-10-22T03:32:19.683Z,65.78
2022-10-22T03:34:51.203Z,65.71
2022-10-22T03:37:24.333Z,65.96
2022-10-22T03:39:56.688Z,65.98
2022-10-22T03:42:28.834Z,65.93
2022-10-22T03:45:00.206Z,65.95
2022-10-22T03:47:31.657Z,65.98
2022-10-22T03:50:03.235Z,65.98
2022-10-22T03:52:39.850Z,66.11
2022-10-22T03:55:13.134Z,66.17
2022-10-22T03:57:44.620Z,66.24
2022-10-22T04:00:17.425Z,66.23
2022-10-22T04:02:48.900Z,66.29
2022-10-22T04:05:20.402Z,66.30
2022-10-22T04:07:51.818Z,66.30
2022-10-22T04:10:23.284Z,66.31
2022-10-22T04:12:54.804Z,66.34
2022-10-22T04:15:29.390Z,66.44
2022-10-22T04:18:00.842Z,66.52
2022-10-22T04:20:32.236Z,66.52
2022-10-22T04:23:03.739Z,66.59
2022-10-22T04:25:35.210Z,66.64
2022-10-22T04:28:10.063Z,66.62
2022-10-22T04:30:41.588Z,66.73
2022-10-22T04:33:13.133Z,66.89
2022-10-22T04:35:44.648Z,66.84
2022-10-22T04:38:16.635Z,66.83
2022-10-22T04:40:48.103Z,66.89
2022-10-22T04:43:19.564Z,66.93
2022-10-22T04:45:51.020Z,66.93
2022-10-22T04:48:22.628Z,66.93
2022-10-22T04:50:54.006Z,66.94
2022-10-22T04:53:25.463Z,66.99
2022-10-22T04:55:56.966Z,66.99
2022-10-22T04:58:28.371Z,67.08
2022-10-22T05:01:00.857Z,67.01
2022-10-22T05:03:32.369Z,67.05
2022-10-22T05:06:04.899Z,67.12
2022-10-22T05:08:36.561Z,67.05
2022-10-22T05:11:15.651Z,67.15
2022-10-22T05:13:48.139Z,67.28
2022-10-22T05:16:19.584Z,67.36
2022-10-22T05:18:51.016Z,67.35
2022-10-22T05:21:23.793Z,67.36
2022-10-22T05:23:56.329Z,67.47
2022-10-22T05:26:29.636Z,67.50
2022-10-22T05:29:01.089Z,67.47
2022-10-22T05:31:32.704Z,67.51
2022-10-22T05:34:04.429Z,67.45
2022-10-22T05:36:35.952Z,67.55
2022-10-22T05:39:08.137Z,67.48
2022-10-22T05:41:39.754Z,67.52
2022-10-22T05:44:14.180Z,67.55
2022-10-22T05:46:46.892Z,67.57
2022-10-22T05:49:19.207Z,67.55
2022-10-22T05:51:50.748Z,67.63
2022-10-22T05:54:23.236Z,67.54
2022-10-22T05:56:56.296Z,67.72
2022-10-22T05:59:27.808Z,67.81
2022-10-22T06:01:59.231Z,67.82
2022-10-22T06:04:30.671Z,67.83
2022-10-22T06:07:03.063Z,67.94
2022-10-22T06:09:40.853Z,67.90
2022-10-22T06:12:13.831Z,67.98
2022-10-22T06:14:45.312Z,68.08
2022-10-22T06:17:19.722Z,68.04
2022-10-22T06:19:51.118Z,68.17
2022-10-22T06:22:22.526Z,68.14
2022-10-22T06:24:54.467Z,68.23
2022-10-22T06:27:25.964Z,68.14
2022-10-22T06:29:57.401Z,68.07
2022-10-22T06:32:28.778Z,67.97
2022-10-22T06:35:00.165Z,67.92
2022-10-22T06:37:31.676Z,67.83
2022-10-22T06:40:03.065Z,67.60
2022-10-22T06:42:34.662Z,67.50
2022-10-22T06:45:08.020Z,67.52
2022-10-22T06:47:40.213Z,67.51
2022-10-22T06:50:12.999Z,67.43
2022-10-22T06:52:44.604Z,67.52
2022-10-22T06:55:16.146Z,67.32
2022-10-22T06:57:47.550Z,67.35
2022-10-22T07:00:19.822Z,67.19
2022-10-22T07:02:57.696Z,66.89
2022-10-22T07:05:30.807Z,66.57
2022-10-22T07:08:02.306Z,66.40
2022-10-22T07:10:33.747Z,66.30
2022-10-22T07:13:05.301Z,66.08
2022-10-22T07:15:36.695Z,66.03
2022-10-22T07:18:08.337Z,65.91
2022-10-22T07:20:41.194Z,65.88
2022-10-22T07:23:12.642Z,65.72
2022-10-22T07:25:44.764Z,65.72
2022-10-22T07:28:16.268Z,65.71
2022-10-22T07:30:48.069Z,65.68
2022-10-22T07:33:19.542Z,65.55
2022-10-22T07:35:51.060Z,65.39
2022-10-22T07:38:22.489Z,65.31
2022-10-22T07:40:53.954Z,65.21
2022-10-22T07:43:25.504Z,65.28
2022-10-22T07:45:56.918Z,65.18
2022-10-22T07:48:28.546Z,65.03
2022-10-22T07:51:00.565Z,65.10
2022-10-22T07:53:32.249Z,65.01
2022-10-22T07:56:04.547Z,64.98
2022-10-22T07:58:36.710Z,64.90
2022-10-22T08:01:08.539Z,64.87
2022-10-22T08:03:40.337Z,64.63
2022-10-22T08:06:14.337Z,64.71
2022-10-22T08:08:46.745Z,64.65
2022-10-22T08:11:18.455Z,64.54
2022-10-22T08:13:49.839Z,64.58
2022-10-22T08:16:21.473Z,64.34
2022-10-22T08:18:53.344Z,64.42
2022-10-22T08:21:25.099Z,64.43
2022-10-22T08:23:56.700Z,64.39
2022-10-22T08:26:28.893Z,64.32
2022-10-22T08:29:00.392Z,64.20
2022-10-22T08:31:32.000Z,64.17
2022-10-22T08:34:05.686Z,64.13
2022-10-22T08:36:37.143Z,64.02
2022-10-22T08:39:08.619Z,64.08
2022-10-22T08:41:53.796Z,63.93
2022-10-22T08:44:50.123Z,63.80
2022-10-22T08:47:38.989Z,63.90
2022-10-22T08:50:17.895Z,64.02
2022-10-22T08:52:58.211Z,64.07
2022-10-22T08:55:36.515Z,63.89
2022-10-22T08:58:21.119Z,63.89
2022-10-22T09:01:00.903Z,63.86
2022-10-22T09:03:46.687Z,63.91
2022-10-22T09:06:23.067Z,63.97
2022-10-22T09:08:58.147Z,63.90
2022-10-22T09:11:34.476Z,63.86
2022-10-22T09:14:08.019Z,64.00
2022-10-22T09:16:54.959Z,64.01
2022-10-22T09:19:35.795Z,63.97
2022-10-22T09:22:23.733Z,63.75
2022-10-22T09:24:59.959Z,63.92
2022-10-22T09:27:32.653Z,63.82
2022-10-22T09:30:04.680Z,63.69
2022-10-22T09:32:36.134Z,63.69
2022-10-22T09:35:13.378Z,63.68
2022-10-22T09:37:52.551Z,63.58
2022-10-22T09:40:24.635Z,63.59
2022-10-22T09:42:56.044Z,63.76
2022-10-22T09:45:29.198Z,63.63
2022-10-22T09:48:13.939Z,63.55
2022-10-22T09:50:48.190Z,63.72
2022-10-22T09:53:23.501Z,63.79
2022-10-22T09:55:57.756Z,63.86
2022-10-22T09:58:30.102Z,63.72
2022-10-22T10:01:04.530Z,63.79
2022-10-22T10:03:35.923Z,63.69
2022-10-22T10:06:08.366Z,63.68
2022-10-22T10:08:40.066Z,63.70
2022-10-22T10:11:20.258Z,63.72
2022-10-22T10:13:59.447Z,63.65
2022-10-22T10:16:44.460Z,63.59
2022-10-22T10:19:38.928Z,63.68
2022-10-22T10:22:25.499Z,63.76
2022-10-22T10:25:29.032Z,63.85
2022-10-22T10:28:13.430Z,64.03
2022-10-22T10:30:53.422Z,64.15
2022-10-22T10:33:35.165Z,64.21
2022-10-22T10:36:18.003Z,64.34
2022-10-22T10:39:13.918Z,64.54
2022-10-22T10:41:57.566Z,64.62
2022-10-22T10:44:42.117Z,64.76
2022-10-22T10:47:46.875Z,64.87
2022-10-22T10:50:26.926Z,65.04
2022-10-22T10:53:12.348Z,65.01
2022-10-22T10:55:55.015Z,65.12
2022-10-22T10:58:35.830Z,65.37
2022-10-22T11:01:21.128Z,65.28
2022-10-22T11:04:08.504Z,65.20
2022-10-22T11:06:40.953Z,65.23
2022-10-22T11:09:25.893Z,65.28
2022-10-22T11:12:01.912Z,65.31
2022-10-22T11:14:41.337Z,65.26
2022-10-22T11:17:17.072Z,65.30
2022-10-22T11:19:59.897Z,65.47
2022-10-22T11:22:42.168Z,65.57
2022-10-22T11:25:23.293Z,65.93
2022-10-22T11:28:04.668Z,65.90
2022-10-22T11:30:41.977Z,66.01
2022-10-22T11:33:19.406Z,66.07
2022-10-22T11:42:20.452Z,66.45
2022-10-22T11:45:02.575Z,66.34
2022-10-22T11:47:36.553Z,66.39
2022-10-22T11:50:25.985Z,66.27
2022-10-22T11:53:05.271Z,66.21
2022-10-22T11:55:52.517Z,66.32
2022-10-22T11:58:33.269Z,66.33
2022-10-22T12:01:26.288Z,66.40
2022-10-22T12:04:21.407Z,66.47
2022-10-22T12:06:59.259Z,66.46
2022-10-22T12:09:34.398Z,66.32
2022-10-22T12:12:15.375Z,66.43
2022-10-22T12:14:59.364Z,66.26
2022-10-22T12:17:32.369Z,66.32
2022-10-22T12:20:08.849Z,66.36
2022-10-22T12:22:41.312Z,66.33
2022-10-22T12:25:22.145Z,66.22
2022-10-22T12:27:57.197Z,66.19
2022-10-22T12:30:31.487Z,66.23
2022-10-22T12:33:06.480Z,66.16
2022-10-22T12:35:52.010Z,66.19
2022-10-22T12:38:25.628Z,66.26
2022-10-22T12:40:59.222Z,66.19
2022-10-22T12:43:33.527Z,66.21
2022-10-22T12:46:05.365Z,66.20
2022-10-22T12:48:41.529Z,66.26
2022-10-22T12:51:20.229Z,66.38
2022-10-22T12:53:55.176Z,66.41
2022-10-22T12:56:30.037Z,66.49
2022-10-22T12:59:05.132Z,66.51
2022-10-22T13:01:39.910Z,66.42
2022-10-22T13:04:23.245Z,66.49
2022-10-22T13:07:08.164Z,66.53
2022-10-22T13:09:44.993Z,66.49
2022-10-22T13:12:25.528Z,66.51
2022-10-22T13:14:56.998Z,66.77
2022-10-22T13:17:44.037Z,66.63
2022-10-22T13:20:22.393Z,66.60
2022-10-22T13:23:00.433Z,66.56
2022-10-22T13:25:33.594Z,66.50
2022-10-22T13:28:19.666Z,66.54
2022-10-22T13:30:57.914Z,66.51
2022-10-22T13:33:33.461Z,66.52
2022-10-22T13:36:06.429Z,66.43
2022-10-22T13:38:38.019Z,66.51
2022-10-22T13:41:22.477Z,66.58
2022-10-22T13:43:55.241Z,66.55
2022-10-22T13:46:29.432Z,66.64
2022-10-22T13:49:01.564Z,66.76
2022-10-22T13:51:36.761Z,66.73
2022-10-22T13:54:16.329Z,66.65
2022-10-22T13:56:48.271Z,66.71
2022-10-22T13:59:22.863Z,66.78
2022-10-22T14:01:57.230Z,66.92
2022-10-22T14:04:28.760Z,66.90
2022-10-22T14:07:02.870Z,66.96
2022-10-22T14:09:35.782Z,67.01
2022-10-22T14:12:14.140Z,66.98
2022-10-22T14:14:45.714Z,67.07
2022-10-22T14:17:19.460Z,67.14
2022-10-22T14:19:51.975Z,67.06
2022-10-22T14:22:26.171Z,67.15
2022-10-22T14:24:57.721Z,67.26
2022-10-22T14:27:29.264Z,67.33
2022-10-22T14:30:00.698Z,67.38
2022-10-22T14:32:33.567Z,67.47
2022-10-22T14:35:05.348Z,67.45
2022-10-22T14:37:36.893Z,67.59
2022-10-22T14:40:13.446Z,67.69
2022-10-22T14:42:47.570Z,67.83
2022-10-22T14:45:23.140Z,67.91
2022-10-22T14:47:56.039Z,67.87
2022-10-22T14:50:28.004Z,68.00
2022-10-22T14:53:00.688Z,68.09
2022-10-22T14:55:32.604Z,68.09
2022-10-22T14:58:04.202Z,68.17
2022-10-22T15:00:36.909Z,68.18
2022-10-22T15:03:08.660Z,68.28
2022-10-22T15:05:44.857Z,68.39
2022-10-22T15:08:17.719Z,68.38
2022-10-22T15:10:57.935Z,68.49
2022-10-22T15:13:30.134Z,68.54
2022-10-22T15:16:03.052Z,68.56
2022-10-22T15:18:34.687Z,68.61
2022-10-22T15:21:09.125Z,68.63
2022-10-22T15:23:41.242Z,68.73
2022-10-22T15:26:14.075Z,68.68
2022-10-22T15:28:45.811Z,68.87
2022-10-22T15:31:38.368Z,68.94
2022-10-22T15:34:09.913Z,69.03
2022-10-22T15:36:41.469Z,69.06
2022-10-22T15:39:13.504Z,69.06
2022-10-22T15:41:45.043Z,69.14
2022-10-22T15:44:21.654Z,69.17
2022-10-22T15:46:54.881Z,69.26
2022-10-22T15:49:29.193Z,69.30
2022-10-22T15:52:00.723Z,69.30
2022-10-22T15:54:33.010Z,69.40
2022-10-22T15:57:08.687Z,69.50
2022-10-22T15:59:42.993Z,69.48
2022-10-22T16:02:15.983Z,69.49
2022-10-22T16:04:48.154Z,69.58
2022-10-22T16:07:22.538Z,69.64
2022-10-22T16:10:00.324Z,69.58
2022-10-22T16:12:32.754Z,69.67
2022-10-22T16:15:04.721Z,69.72
2022-10-22T16:17:36.471Z,69.74
2022-10-22T16:20:10.188Z,69.79
2022-10-22T16:22:40.441Z,69.90
2022-10-22T16:25:12.780Z,70.09
2022-10-22T16:27:44.317Z,70.03
2022-10-22T16:30:16.576Z,70.07
2022-10-22T16:32:48.162Z,70.05
2022-10-22T16:35:19.826Z,70.15
2022-10-22T16:37:51.474Z,70.06
2022-10-22T16:40:23.755Z,70.14
2022-10-22T16:42:55.606Z,70.21
2022-10-22T16:45:27.283Z,70.23
2022-10-22T16:47:58.930Z,70.19
2022-10-22T16:50:30.783Z,70.23
2022-10-22T16:53:02.451Z,70.35
2022-10-22T16:55:38.922Z,70.40
2022-10-22T16:58:10.684Z,70.41
2022-10-22T17:00:42.458Z,70.60
2022-10-22T17:03:14.909Z,70.54
2022-10-22T17:05:47.601Z,70.49
2022-10-22T17:08:20.387Z,70.59
2022-10-22T17:10:52.153Z,70.61
2022-10-22T17:13:23.803Z,70.66
2022-10-22T17:16:01.811Z,70.74
2022-10-22T17:18:35.545Z,70.74
2022-10-22T17:21:09.402Z,70.85
2022-10-22T17:23:39.543Z,70.84
2022-10-22T17:26:17.629Z,70.99
2022-10-22T17:28:50.746Z,71.04
2022-10-22T17:31:24.844Z,71.03
2022-10-22T17:34:00.226Z,70.97
2022-10-22T17:36:35.652Z,71.09
2022-10-22T17:39:09.356Z,71.02
2022-10-22T17:41:40.760Z,70.99
2022-10-22T17:44:16.814Z,71.12
2022-10-22T17:46:49.735Z,71.25
2022-10-22T17:49:22.540Z,71.27
2022-10-22T17:51:54.129Z,71.38
2022-10-22T17:54:25.677Z,71.42
2022-10-22T17:56:57.197Z,71.40
2022-10-22T17:59:28.751Z,71.44
2022-10-22T18:02:02.295Z,71.54
2022-10-22T18:04:35.342Z,71.51
2022-10-22T18:07:06.868Z,71.46
2022-10-22T18:09:40.139Z,71.56
2022-10-22T18:12:13.708Z,71.59
2022-10-22T18:14:46.404Z,71.63
2022-10-22T18:17:17.895Z,71.71
2022-10-22T18:19:50.731Z,71.77
2022-10-22T18:22:22.227Z,71.89
2022-10-22T18:24:53.733Z,71.92
2022-10-22T18:27:25.368Z,71.94
2022-10-22T18:29:56.865Z,71.97
2022-10-22T18:32:28.362Z,71.99
2022-10-22T18:34:59.861Z,72.05
2022-10-22T18:37:31.961Z,72.15
2022-10-22T18:40:03.430Z,72.09
2022-10-22T18:42:39.755Z,72.14
2022-10-22T18:45:13.007Z,72.24
2022-10-22T18:47:44.819Z,72.23
2022-10-22T18:50:16.488Z,72.33
2022-10-22T18:52:47.992Z,72.31
2022-10-22T18:55:19.577Z,72.34
2022-10-22T18:57:51.094Z,72.42
2022-10-22T19:00:22.809Z,72.36
2022-10-22T19:02:54.927Z,72.38
2022-10-22T19:05:26.471Z,72.41
2022-10-22T19:07:57.947Z,72.49
2022-10-22T19:10:29.340Z,72.45
2022-10-22T19:13:00.724Z,72.50
2022-10-22T19:15:32.458Z,72.55
2022-10-22T19:18:04.055Z,72.60
2022-10-22T19:20:35.837Z,72.51
2022-10-22T19:23:08.321Z,72.53
2022-10-22T19:25:40.107Z,72.69
2022-10-22T19:28:11.554Z,72.70
2022-10-22T19:30:44.718Z,72.72
2022-10-22T19:33:16.134Z,72.75
2022-10-22T19:35:47.734Z,72.74
2022-10-22T19:38:19.257Z,72.76
2022-10-22T19:40:51.347Z,72.77
2022-10-22T19:43:23.779Z,72.78
2022-10-22T19:45:55.196Z,72.88
2022-10-22T19:48:28.697Z,72.84
2022-10-22T19:51:04.958Z,72.88
2022-10-22T19:53:37.923Z,72.86
2022-10-22T19:56:12.152Z,72.90
2022-10-22T19:58:43.688Z,72.99
2022-10-22T20:01:17.563Z,73.04
2022-10-22T20:03:50.778Z,73.08
2022-10-22T20:06:22.982Z,72.97
2022-10-22T20:08:56.144Z,72.93
2022-10-22T20:11:30.156Z,72.99
2022-10-22T20:14:02.297Z,72.98
2022-10-22T20:16:36.360Z,72.97
2022-10-22T20:19:11.117Z,73.06
2022-10-22T20:21:43.309Z,73.11
2022-10-22T20:24:15.250Z,73.24
2022-10-22T20:26:49.070Z,73.32
2022-10-22T20:29:20.637Z,73.38
2022-10-22T20:31:52.323Z,73.26
2022-10-22T20:34:23.695Z,73.32
2022-10-22T20:36:55.250Z,73.26
2022-10-22T20:39:26.809Z,73.26
2022-10-22T20:41:58.364Z,73.31
2022-10-22T20:44:30.362Z,73.33
2022-10-22T20:47:01.795Z,73.40
2022-10-22T20:49:33.890Z,73.32
2022-10-22T20:52:05.413Z,73.46
2022-10-22T20:54:41.386Z,73.46
2022-10-22T20:57:14.316Z,73.52
2022-10-22T20:59:46.341Z,73.47
2022-10-22T21:02:18.309Z,73.47
2022-10-22T21:04:49.710Z,73.46
2022-10-22T21:07:21.106Z,73.51
2022-10-22T21:09:52.553Z,73.65
2022-10-22T21:12:24.095Z,73.65
2022-10-22T21:14:55.627Z,73.58
2022-10-22T21:17:27.117Z,73.53
2022-10-22T21:19:58.735Z,73.62
2022-10-22T21:22:30.340Z,73.61
2022-10-22T21:25:01.735Z,73.71
2022-10-22T21:27:33.207Z,73.65
2022-10-22T21:30:05.514Z,73.60
2022-10-22T21:32:36.960Z,73.59
2022-10-22T21:35:09.592Z,73.60
2022-10-22T21:37:41.210Z,73.71
2022-10-22T21:40:14.903Z,73.75
2022-10-22T21:42:46.544Z,73.76
2022-10-22T21:45:22.109Z,73.81
2022-10-22T21:47:54.092Z,73.64
2022-10-22T21:50:25.524Z,73.77
2022-10-22T21:52:56.954Z,73.76
2022-10-22T21:55:30.428Z,73.72
2022-10-22T21:58:01.867Z,73.73
2022-10-22T22:00:33.465Z,73.66
2022-10-22T22:03:07.882Z,73.73
2022-10-22T22:05:39.827Z,73.72
2022-10-22T22:08:11.263Z,73.80
2022-10-22T22:10:43.439Z,73.66
2022-10-22T22:13:17.833Z,73.69
2022-10-22T22:15:49.213Z,73.66
2022-10-22T22:18:21.520Z,73.70
2022-10-22T22:20:52.961Z,73.81
2022-10-22T22:23:24.428Z,73.71
2022-10-22T22:25:59.096Z,73.73
2022-10-22T22:28:32.217Z,73.69
2022-10-22T22:31:13.026Z,73.75
2022-10-22T22:33:45.008Z,73.83
2022-10-22T22:36:16.574Z,73.81
2022-10-22T22:38:48.119Z,73.81
2022-10-22T22:41:19.521Z,73.88
2022-10-22T22:43:51.023Z,73.98
2022-10-22T22:46:22.521Z,73.82
2022-10-22T22:48:53.935Z,73.85
2022-10-22T22:51:25.673Z,73.82
2022-10-22T22:53:57.811Z,73.82
2022-10-22T22:56:31.481Z,73.78
2022-10-22T22:59:01.528Z,73.91
2022-10-22T23:01:35.329Z,73.99
2022-10-22T23:04:13.512Z,73.85
2022-10-22T23:06:45.228Z,73.85
2022-10-22T23:11:55.350Z,73.89
2022-10-22T23:14:26.756Z,73.84
2022-10-22T23:16:58.134Z,73.89
2022-10-22T23:19:29.584Z,73.85
2022-10-22T23:22:00.963Z,73.91
2022-10-22T23:24:32.566Z,73.88
2022-10-22T23:27:05.565Z,74.01
2022-10-22T23:29:37.448Z,73.99
2022-10-22T23:32:15.217Z,73.90
2022-10-22T23:34:46.585Z,73.86
2022-10-22T23:37:18.036Z,73.89
2022-10-22T23:39:49.485Z,73.86
2022-10-22T23:42:20.899Z,73.79
2022-10-22T23:44:52.337Z,73.89
2022-10-22T23:47:23.871Z,73.96
2022-10-22T23:49:55.237Z,73.93
2022-10-22T23:52:27.983Z,73.97
2022-10-22T23:54:59.409Z,73.99
2022-10-22T23:57:30.811Z,74.01
